Aultbea, United Kingdom

9:48 AM BST on August 31, 2015 (GMT +0100)
Badbea, Dundonnell | | Change Station
CLOSE
Current Station
Personal Weather Station
Location: Dundonnell, WESTER ROSS
Elevation: 60 ft
Nearby Weather Stations

Elev 60 ft 57.86 °N, 5.32 °W | Updated 3 minutes ago

Mostly Cloudy
Mostly Cloudy
53.5 °F
Feels Like 53.5 °F
N
1.0
Wind Variable Wind from NW
Gusts 4.0 mph

Today
High -- | Low -- °F
--% Chance of Precip.
Yesterday
High -- | Low -- °F
Precip. -- in
6:19 AM 8:24 PM
Waning Gibbous, 96% visible
Pressure 30.12 in
Visibility 6.2 miles
Clouds Few 700 ft
Scattered Clouds 2200 ft
Mostly Cloudy 4200 ft
Dew Point 52 °F
Humidity 94%
Rainfall 0.10 in
Snow Depth Not available.
UV 0.7 out of 12
Pollen Not available.
Air Quality Not available.
Flu Activity Not available.
METAR EGPO 310750Z 34008KT 9999 VCSH FEW007 SCT022 BKN042 11/09 Q1020
Pressure 30.12 in
Visibility 6.2 miles
Clouds Few 700 ft
Scattered Clouds 2200 ft
Mostly Cloudy 4200 ft
Dew Point 52 °F
Humidity 94%
Rainfall 0.10 in
Snow Depth Not available.
UV 0.7 out of 12
Pollen Not available.
Air Quality Not available.
Flu Activity Not available.
METAR EGPO 310750Z 34008KT 9999 VCSH FEW007 SCT022 BKN042 11/09 Q1020

10-Day Weather Forecast

×

Almanac

Astronomy

Aug. 31, 2015 Rise Set
Actual Time
Civil Twilight
Nautical Twilight
Astronomical Twilight
Moon
Length of Visible Light
Length of Day
Tomorrow will be .
, % of the Moon is Illuminated

Today's Extremes

Country Highs Country Lows

Community

WunderPhotos

Upload Photos

1,851,220 photos uploaded!

WunderBlogs® & News

Nearby

Air Quality

  Air Quality AQ Index Pollutant
Not available.

Snow Depth

Station Depth Elevation

Earthquake Activity

City Distance Mag. Time & Date
Minimum magnitude displayed is 2.5.

Coastal Water Temperatures

Place Temperature

Stations

Nearby Weather Stations

Station Location Temp. Windchill Dew Point Humidity Wind Precip. Elev Updated Type